aviador You're here:

SAEZ Decoded Metar

BUENOS AIRES/EZE in ARGENTINA
Report Time2017-09-25 15:00:00
UTC Time2017-09-25 17:00:05
Flight Rules Old
Wind170° at 06 kt
W.Decomp.*RWY 17: 6.0 kt HW 0.7 kt RCW
RWY 11: 2.3 kt HW 5.5 kt RCW
W.Rank170° ranks 24
Current wind is below 170° avg. (6.9)
Visibility9999 m
Phenomena:N/A
Clouds:Few 036 Hf
Expected CloudBase > 3,600 ft AGL from Temp-Dew spread
CeilingNone
Temp23°C (ISA +8)
Dew Point14°C (57% RH)
AAT22.1°C
QNH1019 hPa
Density Alt1,024 ft
Elevation66 ft
Report Wrong Elevation
Raw Report
METAR SAEZ 251500Z 17006KT 130V210 9999 FEW036 23/14 Q1019=

Extra information for SAEZ:More info

Metar Taf Metar & Taf Last 4 Metars F.Rules Stats Wind Profile Meteogram Temp Stats Airport Information Weather charts Add Link Nearby VenuesMetar ALERT Operation Metar Decoded Social comments